Time;durP1;ratioP1;P1;durP2;ratioP2;P2;SDS_P1;SDS_P2;PMS_P1;PMS_P2;Temp;Humidity;BMP_temperature;BMP_pressure;BME280_temperature;BME280_humidity;BME280_pressure;Samples;Min_cycle;Max_cycle;Signal;HPM_P1;HPM_P2
2022/07/30 00:02:06;;;;;;;4.75;2.38;;;;;;;;;;5065444;28;20108;-77
2022/07/30 00:04:33;;;;;;;6.43;3.15;;;;;;;;;;5066010;28;20149;-76
2022/07/30 00:07:02;;;;;;;8.73;3.40;;;;;;;;;;5063927;28;20084;-76
2022/07/30 00:09:31;;;;;;;7.07;2.90;;;;;;;;;;5065407;28;20064;-75
2022/07/30 00:12:02;;;;;;;6.57;2.33;;;;;;;;;;5065359;28;20489;-75
2022/07/30 00:14:30;;;;;;;7.03;2.55;;;;;;;;;;5065145;28;20155;-75
2022/07/30 00:16:57;;;;;;;8.20;2.60;;;;;;;;;;5065744;28;20080;-75
2022/07/30 00:19:25;;;;;;;6.30;2.30;;;;;;;;;;5063732;28;20136;-75
2022/07/30 00:21:56;;;;;;;6.20;2.38;;;;;;;;;;5063797;28;20087;-76
2022/07/30 00:24:23;;;;;;;5.78;2.20;;;;;;;;;;5063712;28;20887;-76
2022/07/30 00:26:50;;;;;;;6.00;2.13;;;;;;;;;;5063745;28;20155;-76
2022/07/30 00:29:18;;;;;;;8.05;2.40;;;;;;;;;;5063498;28;20131;-76
2022/07/30 00:31:45;;;;;;;9.30;2.40;;;;;;;;;;5064595;28;20143;-76
2022/07/30 00:34:12;;;;;;;3.45;2.10;;;;;;;;;;5064652;28;20590;-75
2022/07/30 00:36:40;;;;;;;5.07;2.10;;;;;;;;;;5065227;28;20115;-76
2022/07/30 00:39:07;;;;;;;6.13;2.35;;;;;;;;;;5065068;28;20135;-76
2022/07/30 00:41:36;;;;;;;5.05;2.30;;;;;;;;;;5064620;28;20148;-75
2022/07/30 00:44:04;;;;;;;7.07;2.30;;;;;;;;;;5066585;28;20076;-75
2022/07/30 00:46:31;;;;;;;3.75;2.30;;;;;;;;;;5063485;28;20139;-75
2022/07/30 00:48:58;;;;;;;4.15;2.20;;;;;;;;;;5064827;28;20405;-75
2022/07/30 00:51:26;;;;;;;8.88;2.03;;;;;;;;;;5064977;28;20048;-75
2022/07/30 00:53:53;;;;;;;9.20;2.80;;;;;;;;;;5064638;28;20132;-75
2022/07/30 00:56:20;;;;;;;3.72;2.10;;;;;;;;;;5064211;28;20084;-76
2022/07/30 00:58:48;;;;;;;6.43;2.38;;;;;;;;;;5064656;28;20123;-75
2022/07/30 01:01:15;;;;;;;10.23;2.67;;;;;;;;;;5064210;28;20135;-75
2022/07/30 01:03:42;;;;;;;9.85;2.63;;;;;;;;;;5064482;28;20084;-75
2022/07/30 01:06:09;;;;;;;6.57;2.20;;;;;;;;;;5064712;28;20151;-75
2022/07/30 01:08:42;;;;;;;5.63;2.60;;;;;;;;;;5063345;28;20057;-75
2022/07/30 01:11:10;;;;;;;6.80;2.08;;;;;;;;;;5064547;28;20049;-76
2022/07/30 01:13:37;;;;;;;5.68;2.17;;;;;;;;;;5063082;28;20459;-76
2022/07/30 01:16:05;;;;;;;10.05;3.13;;;;;;;;;;5063337;28;20093;-76
2022/07/30 01:21:23;;;;;;;4.50;1.80;;;;;;;;;;5064422;28;20140;-75
2022/07/30 01:23:53;;;;;;;7.38;1.98;;;;;;;;;;5063084;28;20049;-76
2022/07/30 01:26:21;;;;;;;5.32;2.22;;;;;;;;;;5064329;28;20461;-75
2022/07/30 01:28:51;;;;;;;4.65;2.20;;;;;;;;;;5063273;28;20436;-76
2022/07/30 01:31:19;;;;;;;5.88;1.85;;;;;;;;;;5064522;28;20132;-76
2022/07/30 01:33:48;;;;;;;5.18;2.30;;;;;;;;;;5064466;28;20135;-76
2022/07/30 01:36:17;;;;;;;5.97;2.47;;;;;;;;;;5064658;28;20159;-76
2022/07/30 01:38:45;;;;;;;3.17;2.20;;;;;;;;;;5064400;28;20643;-75
2022/07/30 01:41:13;;;;;;;5.00;2.40;;;;;;;;;;5066106;28;20079;-76
2022/07/30 01:43:41;;;;;;;5.35;2.13;;;;;;;;;;5068506;28;20163;-76
2022/07/30 01:46:08;;;;;;;5.72;2.78;;;;;;;;;;5066490;28;20057;-75
2022/07/30 01:48:39;;;;;;;5.50;2.20;;;;;;;;;;5068015;28;20049;-76
2022/07/30 01:51:07;;;;;;;6.30;2.30;;;;;;;;;;5067576;28;20048;-75
2022/07/30 01:53:37;;;;;;;6.65;2.30;;;;;;;;;;5068022;28;20048;-75
2022/07/30 01:56:05;;;;;;;6.50;2.05;;;;;;;;;;5067824;28;20122;-76
2022/07/30 01:58:37;;;;;;;13.18;2.40;;;;;;;;;;5068155;28;20048;-76
2022/07/30 02:01:06;;;;;;;6.03;2.45;;;;;;;;;;5066236;28;20187;-76
2022/07/30 02:03:34;;;;;;;6.25;2.50;;;;;;;;;;5067994;28;20076;-76
2022/07/30 02:06:05;;;;;;;9.57;2.55;;;;;;;;;;5067415;28;20052;-75
2022/07/30 02:08:35;;;;;;;6.18;2.05;;;;;;;;;;5067533;28;20050;-75
2022/07/30 02:11:09;;;;;;;5.50;2.22;;;;;;;;;;5067159;28;20136;-75
2022/07/30 02:13:50;;;;;;;5.47;2.20;;;;;;;;;;5067742;28;20068;-76
2022/07/30 02:16:23;;;;;;;4.65;2.20;;;;;;;;;;5067626;28;20175;-75
2022/07/30 02:19:01;;;;;;;4.57;2.25;;;;;;;;;;5067820;28;20063;-75
2022/07/30 02:21:35;;;;;;;7.93;3.05;;;;;;;;;;5067423;28;20408;-75
2022/07/30 02:24:05;;;;;;;5.15;2.10;;;;;;;;;;5067018;28;20501;-76
2022/07/30 02:26:33;;;;;;;3.00;1.98;;;;;;;;;;5065834;28;20135;-76
2022/07/30 02:29:02;;;;;;;5.20;2.65;;;;;;;;;;5067316;28;20134;-75
2022/07/30 02:31:33;;;;;;;3.70;2.30;;;;;;;;;;5066942;28;20473;-75
2022/07/30 02:34:03;;;;;;;5.25;2.22;;;;;;;;;;5067120;28;20060;-76
2022/07/30 02:36:32;;;;;;;3.80;2.35;;;;;;;;;;5066692;28;20135;-75
2022/07/30 02:39:01;;;;;;;4.45;2.50;;;;;;;;;;5066947;28;20155;-75
2022/07/30 02:41:30;;;;;;;4.63;2.63;;;;;;;;;;5065224;28;20092;-76
2022/07/30 02:43:58;;;;;;;10.07;2.33;;;;;;;;;;5065158;28;20775;-76
2022/07/30 02:46:26;;;;;;;5.28;2.67;;;;;;;;;;5065667;28;20060;-76
2022/07/30 02:48:54;;;;;;;6.43;2.42;;;;;;;;;;5066898;28;20135;-75
2022/07/30 02:51:22;;;;;;;7.95;2.42;;;;;;;;;;5066539;28;20551;-76
2022/07/30 02:53:49;;;;;;;4.25;2.35;;;;;;;;;;5066412;28;20048;-75
2022/07/30 02:56:19;;;;;;;7.38;2.75;;;;;;;;;;5066891;28;20056;-75
2022/07/30 02:58:47;;;;;;;5.78;2.10;;;;;;;;;;5066891;28;20139;-75
2022/07/30 03:01:15;;;;;;;8.75;2.58;;;;;;;;;;5066603;28;20468;-76
2022/07/30 03:03:44;;;;;;;4.80;2.45;;;;;;;;;;5065194;28;20053;-76
2022/07/30 03:06:13;;;;;;;4.47;2.60;;;;;;;;;;5064775;28;20132;-76
2022/07/30 03:08:43;;;;;;;5.18;2.38;;;;;;;;;;5066538;28;20135;-76
2022/07/30 03:11:11;;;;;;;8.40;2.33;;;;;;;;;;5066163;28;20648;-75
2022/07/30 03:13:38;;;;;;;4.13;2.33;;;;;;;;;;5066152;28;20137;-75
2022/07/30 03:16:07;;;;;;;6.13;2.80;;;;;;;;;;5066287;28;20453;-76
2022/07/30 03:18:37;;;;;;;5.38;2.30;;;;;;;;;;5066128;28;20109;-75
2022/07/30 03:21:06;;;;;;;4.55;2.80;;;;;;;;;;5066248;28;20133;-75
2022/07/30 03:23:36;;;;;;;3.97;2.50;;;;;;;;;;5066078;28;20095;-76
2022/07/30 03:26:05;;;;;;;7.15;2.70;;;;;;;;;;5066079;28;20370;-75
2022/07/30 03:28:33;;;;;;;3.70;2.35;;;;;;;;;;5065866;28;20475;-75
2022/07/30 03:31:01;;;;;;;8.00;2.60;;;;;;;;;;5065171;28;20131;-75
2022/07/30 03:33:30;;;;;;;5.38;2.90;;;;;;;;;;5065246;28;20054;-75
2022/07/30 03:36:06;;;;;;;4.78;2.58;;;;;;;;;;5065912;28;20130;-75
2022/07/30 03:38:34;;;;;;;8.10;2.70;;;;;;;;;;5065552;28;20117;-75
2022/07/30 03:41:01;;;;;;;11.43;2.90;;;;;;;;;;5064218;28;20084;-75
2022/07/30 03:43:29;;;;;;;5.63;3.70;;;;;;;;;;5065397;28;20446;-75
2022/07/30 03:46:01;;;;;;;5.75;2.80;;;;;;;;;;5065637;28;20089;-75
2022/07/30 03:48:28;;;;;;;6.80;3.15;;;;;;;;;;5063790;28;20053;-75
2022/07/30 03:50:56;;;;;;;5.78;2.83;;;;;;;;;;5063872;28;20155;-76
2022/07/30 03:53:24;;;;;;;5.32;2.88;;;;;;;;;;5065480;28;20139;-76
2022/07/30 03:55:54;;;;;;;3.75;2.28;;;;;;;;;;5065093;28;20064;-76
2022/07/30 03:58:22;;;;;;;3.92;2.45;;;;;;;;;;5065148;28;20084;-76
2022/07/30 04:00:50;;;;;;;6.32;2.38;;;;;;;;;;5064793;28;20084;-76
2022/07/30 04:03:28;;;;;;;7.72;2.58;;;;;;;;;;5064638;28;20132;-76
2022/07/30 04:05:55;;;;;;;4.75;2.50;;;;;;;;;;5063700;28;20055;-76
2022/07/30 04:08:23;;;;;;;5.07;2.20;;;;;;;;;;5065279;28;20177;-76
2022/07/30 04:10:50;;;;;;;6.55;2.80;;;;;;;;;;5063234;28;20163;-76
2022/07/30 04:13:18;;;;;;;4.85;2.50;;;;;;;;;;5065214;28;20652;-76
2022/07/30 04:15:48;;;;;;;6.85;2.60;;;;;;;;;;5064834;28;20509;-76
2022/07/30 04:18:40;;;;;;;6.07;2.67;;;;;;;;;;5063473;28;20600;-76
2022/07/30 04:21:10;;;;;;;4.10;2.40;;;;;;;;;;5064876;28;20052;-75
2022/07/30 04:23:44;;;;;;;6.57;2.67;;;;;;;;;;5064961;28;20045;-76
2022/07/30 04:26:33;;;;;;;3.10;2.00;;;;;;;;;;5065093;28;20064;-76
2022/07/30 04:29:01;;;;;;;3.75;2.53;;;;;;;;;;5064540;28;20052;-77
2022/07/30 04:31:29;;;;;;;5.95;2.55;;;;;;;;;;5064417;28;20099;-76
2022/07/30 04:33:56;;;;;;;4.13;2.33;;;;;;;;;;5064380;28;20072;-76
2022/07/30 04:36:31;;;;;;;10.77;2.70;;;;;;;;;;5063460;28;20048;-76
2022/07/30 04:38:58;;;;;;;13.20;2.80;;;;;;;;;;5064749;28;20087;-76
2022/07/30 04:41:26;;;;;;;6.68;2.88;;;;;;;;;;5064147;28;20083;-76
2022/07/30 04:43:53;;;;;;;5.30;2.65;;;;;;;;;;5064772;28;20101;-76
2022/07/30 04:46:21;;;;;;;6.13;3.08;;;;;;;;;;5062753;28;20075;-76
2022/07/30 04:48:51;;;;;;;11.27;2.90;;;;;;;;;;5064149;28;20048;-76
2022/07/30 04:51:39;;;;;;;4.55;2.53;;;;;;;;;;5064028;28;20113;-76
2022/07/30 04:54:08;;;;;;;4.75;2.65;;;;;;;;;;5061235;28;20134;-76
2022/07/30 04:56:42;;;;;;;3.10;2.10;;;;;;;;;;5043609;28;20052;-76
2022/07/30 04:59:21;;;;;;;8.98;2.72;;;;;;;;;;5050296;28;20041;-76
2022/07/30 05:01:49;;;;;;;10.35;3.75;;;;;;;;;;5062949;28;20110;-76
2022/07/30 05:04:17;;;;;;;6.10;2.72;;;;;;;;;;5064660;28;20052;-76
2022/07/30 05:06:45;;;;;;;6.05;2.55;;;;;;;;;;5062362;28;20056;-75
2022/07/30 05:09:14;;;;;;;9.32;2.90;;;;;;;;;;5048298;28;20572;-75
2022/07/30 05:11:42;;;;;;;6.50;2.38;;;;;;;;;;5057461;28;20044;-75
2022/07/30 05:14:10;;;;;;;7.55;2.40;;;;;;;;;;5055605;28;20915;-74
2022/07/30 05:16:37;;;;;;;5.57;2.65;;;;;;;;;;5056622;28;20167;-75
2022/07/30 05:19:04;;;;;;;7.13;3.22;;;;;;;;;;5057665;28;20645;-75
2022/07/30 05:21:34;;;;;;;9.48;3.22;;;;;;;;;;5059951;28;20048;-75
2022/07/30 05:24:01;;;;;;;6.43;2.85;;;;;;;;;;5059200;28;20055;-75
2022/07/30 05:26:28;;;;;;;4.28;2.30;;;;;;;;;;5061040;28;20052;-75
2022/07/30 05:28:56;;;;;;;6.38;2.42;;;;;;;;;;5063049;28;20128;-75
2022/07/30 05:31:23;;;;;;;5.60;2.30;;;;;;;;;;5061820;28;20048;-75
2022/07/30 05:33:51;;;;;;;9.88;2.42;;;;;;;;;;5061908;28;20049;-75
2022/07/30 05:36:19;;;;;;;7.63;2.60;;;;;;;;;;5062515;28;20120;-75
2022/07/30 05:38:47;;;;;;;8.90;2.47;;;;;;;;;;5062832;28;20140;-75
2022/07/30 05:41:14;;;;;;;6.60;2.55;;;;;;;;;;5061483;28;20136;-75
2022/07/30 05:43:59;;;;;;;8.33;2.63;;;;;;;;;;5064879;28;20045;-75
2022/07/30 05:46:26;;;;;;;5.43;2.42;;;;;;;;;;5053370;28;20136;-76
2022/07/30 05:48:54;;;;;;;4.80;2.15;;;;;;;;;;5048189;28;20425;-76
2022/07/30 05:51:21;;;;;;;5.82;2.10;;;;;;;;;;5047876;28;20084;-78
2022/07/30 05:53:49;;;;;;;4.05;2.30;;;;;;;;;;5047884;28;20140;-78
2022/07/30 05:56:16;;;;;;;4.68;2.38;;;;;;;;;;5046161;28;20148;-78
2022/07/30 05:58:43;;;;;;;12.57;3.50;;;;;;;;;;5047022;28;20072;-79
2022/07/30 06:01:11;;;;;;;9.30;2.72;;;;;;;;;;5046229;28;20128;-78
2022/07/30 06:03:38;;;;;;;4.70;2.20;;;;;;;;;;5047878;28;20327;-78
2022/07/30 06:06:07;;;;;;;6.50;2.17;;;;;;;;;;5047357;28;20047;-78
2022/07/30 06:08:34;;;;;;;2.78;2.20;;;;;;;;;;5047591;28;20114;-78
2022/07/30 06:11:01;;;;;;;8.70;3.13;;;;;;;;;;5047520;28;20148;-78
2022/07/30 06:13:29;;;;;;;3.80;2.30;;;;;;;;;;5045702;28;20184;-78
2022/07/30 06:15:56;;;;;;;6.40;2.53;;;;;;;;;;5046919;28;20156;-77
2022/07/30 06:18:23;;;;;;;16.83;2.90;;;;;;;;;;5045394;28;20138;-77
2022/07/30 06:20:52;;;;;;;8.60;2.10;;;;;;;;;;5044926;28;20075;-77
2022/07/30 06:23:20;;;;;;;24.17;2.90;;;;;;;;;;5046585;28;20049;-77
2022/07/30 06:25:48;;;;;;;3.55;2.10;;;;;;;;;;5046328;28;20080;-77
2022/07/30 06:28:16;;;;;;;3.92;1.92;;;;;;;;;;5046239;28;20148;-77
2022/07/30 06:31:03;;;;;;;9.38;2.30;;;;;;;;;;5045555;28;20137;-77
2022/07/30 06:33:31;;;;;;;5.70;2.25;;;;;;;;;;5045530;28;20048;-77
2022/07/30 06:35:58;;;;;;;10.23;2.30;;;;;;;;;;5046101;28;20456;-77
2022/07/30 06:38:25;;;;;;;3.63;2.10;;;;;;;;;;5046418;28;20152;-77
2022/07/30 06:40:53;;;;;;;6.18;2.20;;;;;;;;;;5046051;28;20742;-77
2022/07/30 06:43:23;;;;;;;7.07;1.98;;;;;;;;;;5044850;28;20060;-77
2022/07/30 06:45:50;;;;;;;4.60;1.88;;;;;;;;;;5046493;28;20637;-77
2022/07/30 06:48:17;;;;;;;6.68;2.40;;;;;;;;;;5045136;28;20052;-77
2022/07/30 06:50:45;;;;;;;14.70;2.00;;;;;;;;;;5046798;28;20504;-77
2022/07/30 06:53:12;;;;;;;5.80;2.38;;;;;;;;;;5057618;28;20796;-77
2022/07/30 06:55:39;;;;;;;4.78;2.25;;;;;;;;;;5047413;28;20048;-77
2022/07/30 06:58:07;;;;;;;3.67;1.75;;;;;;;;;;5047366;28;20053;-78
2022/07/30 07:00:34;;;;;;;10.32;1.90;;;;;;;;;;5047358;28;20075;-78
2022/07/30 07:03:01;;;;;;;7.13;2.10;;;;;;;;;;5050126;28;20140;-78
2022/07/30 07:05:29;;;;;;;3.50;1.80;;;;;;;;;;5053918;28;20807;-78
2022/07/30 07:07:56;;;;;;;8.82;2.00;;;;;;;;;;5063381;28;20135;-78
2022/07/30 07:10:26;;;;;;;7.43;2.53;;;;;;;;;;5046937;28;20072;-78
2022/07/30 07:12:54;;;;;;;6.90;2.50;;;;;;;;;;5049495;28;20048;-78
2022/07/30 07:15:21;;;;;;;8.38;2.03;;;;;;;;;;5049239;28;20126;-78
2022/07/30 07:18:03;;;;;;;8.35;1.83;;;;;;;;;;5049038;28;20580;-78
2022/07/30 07:20:31;;;;;;;9.10;2.13;;;;;;;;;;5046321;28;20092;-78
2022/07/30 07:22:58;;;;;;;8.38;2.40;;;;;;;;;;5046322;28;20489;-76
2022/07/30 07:25:25;;;;;;;5.40;2.20;;;;;;;;;;5046303;28;20128;-77
2022/07/30 07:27:53;;;;;;;6.40;1.95;;;;;;;;;;5046552;28;20164;-80
2022/07/30 07:30:39;;;;;;;7.13;2.28;;;;;;;;;;5058363;28;20056;-76
2022/07/30 07:33:08;;;;;;;7.88;2.10;;;;;;;;;;5063098;28;20083;-76
2022/07/30 07:35:35;;;;;;;8.05;2.22;;;;;;;;;;5063663;28;20167;-76
2022/07/30 07:38:15;;;;;;;5.97;1.95;;;;;;;;;;5064302;28;20053;-77
2022/07/30 07:40:42;;;;;;;10.90;2.65;;;;;;;;;;5064194;28;20057;-77
2022/07/30 07:43:10;;;;;;;5.15;1.60;;;;;;;;;;5064323;28;20163;-77
2022/07/30 07:45:38;;;;;;;6.00;2.20;;;;;;;;;;5062904;28;20080;-77
2022/07/30 07:48:05;;;;;;;14.88;2.25;;;;;;;;;;5063281;28;20056;-77
2022/07/30 07:50:32;;;;;;;6.60;2.33;;;;;;;;;;5062118;28;20052;-77
2022/07/30 07:53:00;;;;;;;7.97;1.98;;;;;;;;;;5063974;28;20147;-77
2022/07/30 07:55:27;;;;;;;6.18;1.70;;;;;;;;;;5061652;28;20135;-77
2022/07/30 07:57:57;;;;;;;10.50;2.42;;;;;;;;;;5062833;28;20451;-77
2022/07/30 08:00:26;;;;;;;5.22;1.65;;;;;;;;;;5061455;28;20151;-77
2022/07/30 08:02:53;;;;;;;3.42;1.50;;;;;;;;;;5064093;28;20062;-77
2022/07/30 08:05:20;;;;;;;7.90;1.42;;;;;;;;;;5062212;28;20420;-77
2022/07/30 08:07:48;;;;;;;20.35;2.00;;;;;;;;;;5062246;28;20088;-77
2022/07/30 08:10:15;;;;;;;5.40;1.65;;;;;;;;;;5062636;28;20152;-77
2022/07/30 08:12:43;;;;;;;6.18;2.00;;;;;;;;;;5062376;28;20557;-78
2022/07/30 08:15:10;;;;;;;18.65;2.55;;;;;;;;;;5063783;28;20079;-78
2022/07/30 08:17:41;;;;;;;9.10;2.33;;;;;;;;;;5063574;28;20133;-78
2022/07/30 08:20:09;;;;;;;10.40;1.80;;;;;;;;;;5061068;28;20053;-78
2022/07/30 08:22:36;;;;;;;3.10;1.60;;;;;;;;;;5060698;28;20419;-78
2022/07/30 08:25:04;;;;;;;3.13;1.40;;;;;;;;;;5062431;28;20072;-78
2022/07/30 08:27:32;;;;;;;7.57;1.60;;;;;;;;;;5062541;28;20140;-78
2022/07/30 08:30:02;;;;;;;10.25;1.40;;;;;;;;;;5062555;28;20186;-78
2022/07/30 08:32:29;;;;;;;4.22;1.63;;;;;;;;;;5062107;28;20080;-78
2022/07/30 08:34:57;;;;;;;3.20;1.50;;;;;;;;;;5062045;28;20830;-78
2022/07/30 08:37:24;;;;;;;3.20;1.95;;;;;;;;;;5060295;28;20479;-78
2022/07/30 08:39:51;;;;;;;6.47;1.40;;;;;;;;;;5060410;28;20078;-78
2022/07/30 08:42:19;;;;;;;12.13;1.92;;;;;;;;;;5061973;28;20139;-78
2022/07/30 08:44:46;;;;;;;5.45;1.63;;;;;;;;;;5060652;28;20439;-78
2022/07/30 08:47:17;;;;;;;3.80;1.55;;;;;;;;;;5060355;28;20130;-78
2022/07/30 08:49:48;;;;;;;6.43;1.85;;;;;;;;;;5063030;28;20056;-78
2022/07/30 08:52:16;;;;;;;5.97;1.27;;;;;;;;;;5064532;28;20159;-78
2022/07/30 08:54:43;;;;;;;4.53;1.65;;;;;;;;;;5066714;28;20396;-78
2022/07/30 08:57:11;;;;;;;6.22;1.70;;;;;;;;;;5066369;28;20149;-78
2022/07/30 08:59:38;;;;;;;5.47;2.20;;;;;;;;;;5067259;28;20059;-78
2022/07/30 09:02:26;;;;;;;9.00;2.20;;;;;;;;;;5065494;28;20048;-78
2022/07/30 09:04:55;;;;;;;9.88;2.22;;;;;;;;;;5067513;28;20044;-79
2022/07/30 09:07:23;;;;;;;5.40;1.55;;;;;;;;;;5067575;28;20478;-79
2022/07/30 09:09:50;;;;;;;10.20;2.00;;;;;;;;;;5066314;28;20404;-79
2022/07/30 09:12:29;;;;;;;11.13;1.95;;;;;;;;;;5066825;28;20052;-78
2022/07/30 09:15:14;;;;;;;7.45;1.60;;;;;;;;;;5065632;28;20048;-79
2022/07/30 09:17:41;;;;;;;;;;;;;;;;;;5067644;28;20159;-79
2022/07/30 09:20:09;;;;;;;3.00;1.25;;;;;;;;;;5066732;28;20439;-79
2022/07/30 09:22:47;;;;;;;3.63;1.58;;;;;;;;;;5067580;28;20140;-78
2022/07/30 09:25:15;;;;;;;5.20;1.40;;;;;;;;;;5065094;28;20055;-79
2022/07/30 09:27:46;;;;;;;11.77;1.42;;;;;;;;;;5067276;28;20222;-79
2022/07/30 09:30:13;;;;;;;13.50;2.22;;;;;;;;;;5066393;28;20167;-78
2022/07/30 09:32:55;;;;;;;4.45;1.77;;;;;;;;;;5064736;28;20525;-78
2022/07/30 09:35:22;;;;;;;2.63;1.20;;;;;;;;;;5066656;28;20135;-78
2022/07/30 09:37:58;;;;;;;3.28;1.20;;;;;;;;;;5064997;28;20500;-79
2022/07/30 09:40:32;;;;;;;2.28;1.10;;;;;;;;;;5067819;28;20477;-79
2022/07/30 09:43:03;;;;;;;3.83;1.45;;;;;;;;;;5059944;28;20045;-79
2022/07/30 09:45:31;;;;;;;6.28;1.50;;;;;;;;;;5048368;28;20051;-77
2022/07/30 09:48:01;;;;;;;6.30;1.60;;;;;;;;;;5047390;28;20179;-77
2022/07/30 09:50:29;;;;;;;5.68;1.85;;;;;;;;;;5045986;28;20053;-77
2022/07/30 09:53:06;;;;;;;6.55;1.73;;;;;;;;;;5055674;28;20062;-78
2022/07/30 09:55:35;;;;;;;7.95;1.20;;;;;;;;;;5063618;28;20044;-77
2022/07/30 09:58:22;;;;;;;8.00;1.40;;;;;;;;;;5065714;28;20048;-78
2022/07/30 10:01:00;;;;;;;8.02;1.40;;;;;;;;;;5066105;28;20063;-79
2022/07/30 10:03:27;;;;;;;3.92;1.75;;;;;;;;;;5052247;28;20055;-78
2022/07/30 10:06:01;;;;;;;7.57;1.50;;;;;;;;;;5051275;28;20049;-80
2022/07/30 10:08:39;;;;;;;7.45;1.50;;;;;;;;;;5068788;28;20051;-80
2022/07/30 10:11:08;;;;;;;7.00;1.60;;;;;;;;;;5060842;28;20136;-79
2022/07/30 10:13:36;;;;;;;8.15;1.77;;;;;;;;;;5049781;28;20160;-78
2022/07/30 10:16:04;;;;;;;6.05;1.55;;;;;;;;;;5049385;28;20053;-79
2022/07/30 10:18:33;;;;;;;9.20;1.80;;;;;;;;;;5053106;28;20051;-78
2022/07/30 10:21:00;;;;;;;9.10;2.20;;;;;;;;;;5049580;28;20056;-77
2022/07/30 10:23:32;;;;;;;8.75;1.67;;;;;;;;;;5052256;28;20057;-78
2022/07/30 10:26:02;;;;;;;1.50;1.40;;;;;;;;;;5058542;28;20041;-78
2022/07/30 10:28:30;;;;;;;4.20;1.58;;;;;;;;;;5043273;28;20048;-78
2022/07/30 10:31:04;;;;;;;3.30;1.80;;;;;;;;;;5048036;28;20510;-79
2022/07/30 10:33:52;;;;;;;4.47;1.50;;;;;;;;;;5048072;28;20045;-79
2022/07/30 10:36:20;;;;;;;4.25;1.50;;;;;;;;;;5043904;28;20231;-78
2022/07/30 10:38:51;;;;;;;4.15;1.95;;;;;;;;;;5044905;28;20049;-79
2022/07/30 10:41:28;;;;;;;5.93;1.90;;;;;;;;;;5052765;28;20060;-80
2022/07/30 10:44:17;;;;;;;6.05;2.00;;;;;;;;;;5052948;28;20536;-78
2022/07/30 10:46:54;;;;;;;3.40;1.70;;;;;;;;;;5054075;28;20052;-79
2022/07/30 10:49:24;;;;;;;6.13;1.40;;;;;;;;;;5050161;28;20056;-79
2022/07/30 10:51:53;;;;;;;5.43;1.42;;;;;;;;;;5038542;28;20193;-79
2022/07/30 10:54:38;;;;;;;6.30;1.50;;;;;;;;;;5043578;28;20053;-79
2022/07/30 10:57:06;;;;;;;4.30;1.90;;;;;;;;;;5048328;28;20052;-80
2022/07/30 10:59:49;;;;;;;3.72;1.98;;;;;;;;;;5046178;28;20044;-78
2022/07/30 11:02:17;;;;;;;13.32;1.67;;;;;;;;;;5049290;28;20052;-79
2022/07/30 11:04:46;;;;;;;10.43;1.42;;;;;;;;;;5064149;28;20161;-79
2022/07/30 11:07:22;;;;;;;5.85;1.40;;;;;;;;;;5044074;28;20137;-77
2022/07/30 11:09:54;;;;;;;4.32;1.73;;;;;;;;;;5044897;28;20056;-78
2022/07/30 11:12:41;;;;;;;11.23;2.00;;;;;;;;;;5047578;28;20426;-77
2022/07/30 11:15:11;;;;;;;9.25;2.00;;;;;;;;;;5079089;28;20393;-78
2022/07/30 11:17:45;;;;;;;;;;;;;;;;;;5063990;28;20076;-79
2022/07/30 11:20:13;;;;;;;3.60;1.77;;;;;;;;;;5062928;28;20007;-79
2022/07/30 11:22:43;;;;;;;4.45;1.50;;;;;;;;;;5050616;28;20678;-79
2022/07/30 11:25:31;;;;;;;9.50;2.40;;;;;;;;;;5056142;28;20045;-79
2022/07/30 11:28:36;;;;;;;14.48;2.40;;;;;;;;;;5063643;28;20533;-79
2022/07/30 11:31:04;;;;;;;13.60;2.33;;;;;;;;;;5052018;28;20805;-79
2022/07/30 11:33:36;;;;;;;3.40;1.92;;;;;;;;;;5055597;28;20051;-80
2022/07/30 11:36:05;;;;;;;8.52;1.92;;;;;;;;;;5055282;28;20127;-80
2022/07/30 11:38:50;;;;;;;3.47;1.63;;;;;;;;;;5051786;28;20075;-79
2022/07/30 11:41:17;;;;;;;;;;;;;;;;;;5064097;28;20076;-79
2022/07/30 11:43:45;;;;;;;4.13;1.80;;;;;;;;;;5062338;28;20015;-79
2022/07/30 11:46:18;;;;;;;6.90;2.45;;;;;;;;;;5051423;28;20049;-79
2022/07/30 11:48:56;;;;;;;4.20;1.67;;;;;;;;;;5053049;28;20564;-79
2022/07/30 11:51:24;;;;;;;10.90;2.33;;;;;;;;;;5046778;28;20687;-79
2022/07/30 11:54:04;;;;;;;5.32;2.50;;;;;;;;;;5054745;28;20074;-79
2022/07/30 11:56:32;;;;;;;7.22;1.92;;;;;;;;;;5063081;28;20540;-79
2022/07/30 11:59:02;;;;;;;5.35;1.65;;;;;;;;;;5060748;28;20159;-79
2022/07/30 12:01:30;;;;;;;10.88;1.90;;;;;;;;;;5064401;28;20048;-79
2022/07/30 12:03:57;;;;;;;3.60;1.77;;;;;;;;;;5063616;28;20084;-79
2022/07/30 12:06:25;;;;;;;3.03;1.63;;;;;;;;;;5063669;28;20080;-79
2022/07/30 12:08:52;;;;;;;4.93;1.73;;;;;;;;;;5062598;28;20076;-80
2022/07/30 12:11:25;;;;;;;4.22;1.80;;;;;;;;;;5061570;28;20813;-79
2022/07/30 12:14:00;;;;;;;6.95;1.50;;;;;;;;;;5059925;28;20136;-79
2022/07/30 12:16:29;;;;;;;5.90;1.58;;;;;;;;;;5060056;28;20149;-79
2022/07/30 12:19:04;;;;;;;4.47;1.60;;;;;;;;;;5062436;28;20052;-79
2022/07/30 12:21:31;;;;;;;8.00;2.35;;;;;;;;;;5064496;28;20091;-78
2022/07/30 12:24:00;;;;;;;4.80;1.40;;;;;;;;;;5064464;28;20129;-79
2022/07/30 12:26:30;;;;;;;7.97;1.90;;;;;;;;;;5064528;28;20052;-79
2022/07/30 12:28:58;;;;;;;17.08;2.30;;;;;;;;;;5063373;28;20767;-79
2022/07/30 12:31:26;;;;;;;2.20;1.60;;;;;;;;;;5065804;28;20061;-79
2022/07/30 12:33:55;;;;;;;3.95;1.40;;;;;;;;;;5062160;28;20756;-79
2022/07/30 12:36:35;;;;;;;6.70;1.65;;;;;;;;;;5063831;28;20056;-78
2022/07/30 12:39:05;;;;;;;5.32;1.80;;;;;;;;;;5065130;28;20110;-79
2022/07/30 12:41:43;;;;;;;5.03;1.70;;;;;;;;;;5063207;28;20051;-79
2022/07/30 12:44:11;;;;;;;4.47;1.30;;;;;;;;;;5064752;28;20155;-79
2022/07/30 12:46:42;;;;;;;2.67;1.33;;;;;;;;;;5064561;28;20131;-79
2022/07/30 12:49:09;;;;;;;3.30;1.33;;;;;;;;;;5065107;28;20090;-79
2022/07/30 12:51:53;;;;;;;5.00;1.73;;;;;;;;;;5063235;28;20052;-79
2022/07/30 12:54:26;;;;;;;3.42;1.40;;;;;;;;;;5057501;28;20083;-78
2022/07/30 12:56:57;;;;;;;11.23;1.80;;;;;;;;;;5048520;28;20528;-78
2022/07/30 12:59:25;;;;;;;1.33;1.10;;;;;;;;;;5043144;28;20163;-78
2022/07/30 13:01:53;;;;;;;3.15;1.23;;;;;;;;;;5044705;28;20179;-79
2022/07/30 13:04:21;;;;;;;8.73;1.55;;;;;;;;;;5044636;28;20044;-78
2022/07/30 13:07:07;;;;;;;10.80;1.98;;;;;;;;;;5050942;28;20437;-81
2022/07/30 13:09:34;;;;;;;3.65;1.25;;;;;;;;;;5047719;28;20159;-79
2022/07/30 13:12:02;;;;;;;5.68;1.85;;;;;;;;;;5045409;28;20171;-78
2022/07/30 13:14:30;;;;;;;6.80;1.67;;;;;;;;;;5042380;28;20138;-78
2022/07/30 13:16:57;;;;;;;7.47;1.52;;;;;;;;;;5045213;28;20151;-77
2022/07/30 13:19:26;;;;;;;1.98;1.30;;;;;;;;;;5053857;28;20753;-78
2022/07/30 13:21:54;;;;;;;2.65;1.33;;;;;;;;;;5045158;28;20128;-78
2022/07/30 13:24:21;;;;;;;3.50;1.10;;;;;;;;;;5047641;28;20147;-78
2022/07/30 13:26:48;;;;;;;4.22;1.55;;;;;;;;;;5050044;28;20048;-77
2022/07/30 13:29:17;;;;;;;5.03;1.35;;;;;;;;;;5048848;28;20048;-79
2022/07/30 13:31:44;;;;;;;2.20;1.25;;;;;;;;;;5049578;28;20763;-79
2022/07/30 13:34:12;;;;;;;1.98;1.40;;;;;;;;;;5056081;28;20142;-78
2022/07/30 13:36:40;;;;;;;6.82;1.42;;;;;;;;;;5051213;28;20080;-77
2022/07/30 13:39:07;;;;;;;5.28;2.63;;;;;;;;;;5052640;28;20083;-78
2022/07/30 13:41:35;;;;;;;4.63;1.10;;;;;;;;;;5061861;28;20076;-78
2022/07/30 13:44:03;;;;;;;5.80;1.10;;;;;;;;;;5069531;28;20135;-78
2022/07/30 13:46:30;;;;;;;5.00;1.75;;;;;;;;;;5069192;28;20052;-78
2022/07/30 13:48:57;;;;;;;4.47;1.35;;;;;;;;;;5069364;28;20428;-79
2022/07/30 13:51:25;;;;;;;2.50;1.33;;;;;;;;;;5071041;28;20113;-78
2022/07/30 13:53:52;;;;;;;25.98;2.53;;;;;;;;;;5069632;28;20135;-78
2022/07/30 13:56:20;;;;;;;3.92;1.25;;;;;;;;;;5063235;28;20055;-78
2022/07/30 13:58:47;;;;;;;4.00;1.30;;;;;;;;;;5060861;28;20767;-78
2022/07/30 14:01:15;;;;;;;3.90;1.67;;;;;;;;;;5070317;28;20807;-78
2022/07/30 14:03:44;;;;;;;6.80;1.45;;;;;;;;;;5069962;28;20433;-78
2022/07/30 14:06:16;;;;;;;4.40;1.65;;;;;;;;;;5072334;28;20519;-78
2022/07/30 14:08:43;;;;;;;4.05;1.40;;;;;;;;;;5065698;28;20079;-78
2022/07/30 14:11:11;;;;;;;4.15;1.08;;;;;;;;;;5062699;28;20056;-78
2022/07/30 14:13:38;;;;;;;3.72;1.20;;;;;;;;;;5066259;28;20102;-78
2022/07/30 14:16:06;;;;;;;3.78;1.30;;;;;;;;;;5068100;28;20087;-78
2022/07/30 14:18:54;;;;;;;2.08;1.08;;;;;;;;;;5063201;28;20048;-78
2022/07/30 14:21:21;;;;;;;2.80;1.40;;;;;;;;;;5067958;28;20083;-78
2022/07/30 14:23:48;;;;;;;2.25;1.20;;;;;;;;;;5067484;28;20068;-78
2022/07/30 14:26:17;;;;;;;2.45;1.40;;;;;;;;;;5058947;28;20094;-78
2022/07/30 14:28:44;;;;;;;4.07;1.77;;;;;;;;;;5067750;28;20076;-78
2022/07/30 14:31:11;;;;;;;4.55;1.33;;;;;;;;;;5054825;28;20183;-78
2022/07/30 14:33:39;;;;;;;3.42;1.20;;;;;;;;;;5054629;28;20553;-79
2022/07/30 14:36:06;;;;;;;1.77;1.08;;;;;;;;;;5059513;28;20131;-78
2022/07/30 14:38:33;;;;;;;5.70;1.40;;;;;;;;;;5055588;28;20135;-78
2022/07/30 14:41:01;;;;;;;17.20;1.70;;;;;;;;;;5046749;28;20786;-79
2022/07/30 14:43:28;;;;;;;9.25;1.45;;;;;;;;;;5047932;28;20204;-78
2022/07/30 14:45:55;;;;;;;3.75;1.20;;;;;;;;;;5045061;28;20058;-78
2022/07/30 14:48:23;;;;;;;6.30;1.30;;;;;;;;;;5045411;28;20143;-78
2022/07/30 14:50:50;;;;;;;2.92;1.23;;;;;;;;;;5060558;28;20076;-78
2022/07/30 14:53:38;;;;;;;2.05;1.25;;;;;;;;;;5065824;28;20052;-78
2022/07/30 14:56:06;;;;;;;2.22;1.40;;;;;;;;;;5065592;28;20131;-78
2022/07/30 14:58:33;;;;;;;3.05;1.30;;;;;;;;;;5058505;28;20553;-78
2022/07/30 15:01:03;;;;;;;6.80;1.70;;;;;;;;;;5064779;28;20662;-78
2022/07/30 15:03:42;;;;;;;7.13;1.15;;;;;;;;;;5067202;28;20058;-78